createdAt,value
2022-09-12T00:01:23.738Z,13.90
2022-09-12T00:03:53.306Z,14.13
2022-09-12T00:06:25.314Z,14.47
2022-09-12T00:08:56.757Z,14.77
2022-09-12T00:11:25.073Z,14.07
2022-09-12T00:13:57.432Z,14.07
2022-09-12T00:16:27.902Z,14.30
2022-09-12T00:18:56.266Z,14.10
2022-09-12T00:21:24.898Z,13.73
2022-09-12T00:23:53.715Z,13.67
2022-09-12T00:26:22.984Z,14.00
2022-09-12T00:28:51.655Z,13.87
2022-09-12T00:31:24.162Z,13.63
2022-09-12T00:33:53.026Z,14.53
2022-09-12T00:36:23.417Z,14.23
2022-09-12T00:38:53.491Z,14.73
2022-09-12T00:41:23.714Z,14.83
2022-09-12T00:43:54.227Z,14.67
2022-09-12T00:46:31.942Z,15.30
2022-09-12T00:49:03.848Z,14.97
2022-09-12T00:51:35.048Z,15.13
2022-09-12T00:54:09.040Z,14.67
2022-09-12T00:56:40.874Z,15.63
2022-09-12T00:59:13.736Z,15.53
2022-09-12T01:01:45.519Z,15.67
2022-09-12T01:04:14.687Z,15.77
2022-09-12T01:06:45.024Z,14.67
2022-09-12T01:09:18.165Z,15.00
2022-09-12T01:11:48.694Z,14.47
2022-09-12T01:14:18.218Z,15.50
2022-09-12T01:16:49.493Z,14.97
2022-09-12T01:19:47.257Z,15.70
2022-09-12T01:22:29.673Z,15.60
2022-09-12T01:25:09.506Z,15.07
2022-09-12T01:27:48.056Z,15.50
2022-09-12T01:30:49.511Z,17.03
2022-09-12T01:33:36.638Z,15.23
2022-09-12T01:36:34.765Z,15.10
2022-09-12T01:39:05.413Z,15.00
2022-09-12T01:41:44.717Z,14.57
2022-09-12T01:44:22.815Z,14.10
2022-09-12T01:46:58.723Z,14.33
2022-09-12T01:49:30.730Z,13.70
2022-09-12T01:52:04.581Z,13.43
2022-09-12T01:54:40.112Z,13.47
2022-09-12T01:57:15.374Z,12.83
2022-09-12T01:59:48.848Z,12.87
2022-09-12T02:02:24.164Z,12.40
2022-09-12T02:04:57.953Z,13.50
2022-09-12T02:07:32.749Z,14.30
2022-09-12T02:10:08.674Z,14.27
2022-09-12T02:12:43.683Z,13.80
2022-09-12T02:15:15.836Z,14.53
2022-09-12T02:17:51.306Z,14.50
2022-09-12T02:20:46.537Z,15.50
2022-09-12T02:23:16.096Z,14.27
2022-09-12T02:25:47.874Z,14.90
2022-09-12T02:28:19.994Z,14.37
2022-09-12T02:30:57.413Z,15.00
2022-09-12T02:33:32.795Z,15.17
2022-09-12T02:36:14.419Z,14.93
2022-09-12T02:38:47.263Z,15.33
2022-09-12T02:41:19.214Z,15.03
2022-09-12T02:43:47.973Z,16.70
2022-09-12T02:46:22.527Z,16.63
2022-09-12T02:48:52.483Z,16.43
2022-09-12T02:51:23.654Z,16.17
2022-09-12T02:53:53.084Z,17.17
2022-09-12T02:56:28.278Z,16.40
2022-09-12T02:59:01.295Z,16.40
2022-09-12T03:01:42.024Z,16.20
2022-09-12T03:04:28.364Z,17.13
2022-09-12T03:07:12.876Z,16.30
2022-09-12T03:09:48.381Z,15.80
2022-09-12T03:12:32.955Z,16.97
2022-09-12T03:15:20.695Z,16.70
2022-09-12T03:18:04.751Z,17.30
2022-09-12T03:20:46.226Z,17.63
2022-09-12T03:23:25.094Z,15.60
2022-09-12T03:25:58.525Z,15.40
2022-09-12T03:28:27.595Z,15.77
2022-09-12T03:30:56.701Z,15.60
2022-09-12T03:33:27.306Z,15.37
2022-09-12T03:35:57.816Z,14.90
2022-09-12T03:38:26.106Z,14.40
2022-09-12T03:40:55.114Z,14.93
2022-09-12T03:43:23.639Z,15.30
2022-09-12T03:45:53.544Z,15.03
2022-09-12T03:48:22.204Z,14.70
2022-09-12T03:50:50.456Z,14.83
2022-09-12T03:53:20.024Z,14.90
2022-09-12T03:55:48.345Z,14.70
2022-09-12T03:58:16.628Z,14.93
2022-09-12T04:00:45.433Z,15.53
2022-09-12T04:03:13.785Z,15.40
2022-09-12T04:05:42.128Z,15.30
2022-09-12T04:08:10.301Z,15.23
2022-09-12T04:10:40.036Z,16.83
2022-09-12T04:13:08.614Z,16.90
2022-09-12T04:15:36.950Z,17.50
2022-09-12T04:18:06.233Z,18.00
2022-09-12T04:20:34.766Z,16.43
2022-09-12T04:23:03.011Z,16.47
2022-09-12T04:25:31.452Z,16.80
2022-09-12T04:28:01.105Z,15.80
2022-09-12T04:30:29.466Z,16.23
2022-09-12T04:32:57.944Z,15.90
2022-09-12T04:35:26.216Z,15.33
2022-09-12T04:37:54.669Z,14.57
2022-09-12T04:40:22.923Z,13.73
2022-09-12T04:42:51.306Z,13.43
2022-09-12T04:45:20.945Z,13.43
2022-09-12T04:47:49.344Z,12.13
2022-09-12T04:50:17.759Z,12.50
2022-09-12T04:52:50.907Z,12.57
2022-09-12T04:55:19.285Z,12.40
2022-09-12T04:57:47.595Z,12.30
2022-09-12T05:00:16.217Z,13.30
2022-09-12T05:02:45.787Z,13.17
2022-09-12T05:05:14.035Z,13.57
2022-09-12T05:07:42.316Z,12.00
2022-09-12T05:10:12.724Z,12.87
2022-09-12T05:12:41.051Z,12.97
2022-09-12T05:15:10.216Z,12.73
2022-09-12T05:17:38.512Z,12.97
2022-09-12T05:20:09.555Z,12.77
2022-09-12T05:22:37.867Z,13.70
2022-09-12T05:25:06.800Z,13.37
2022-09-12T05:27:35.186Z,13.67
2022-09-12T05:30:03.506Z,13.70
2022-09-12T05:32:33.476Z,13.60
2022-09-12T05:35:01.813Z,13.07
2022-09-12T05:37:31.374Z,13.13
2022-09-12T05:40:00.044Z,13.37
2022-09-12T05:42:31.277Z,13.10
2022-09-12T05:44:59.682Z,14.23
2022-09-12T05:47:28.000Z,13.83
2022-09-12T05:49:57.605Z,13.60
2022-09-12T05:52:26.544Z,12.77
2022-09-12T05:54:56.206Z,14.13
2022-09-12T05:57:24.446Z,13.40
2022-09-12T05:59:53.017Z,12.63
2022-09-12T06:02:21.342Z,13.00
2022-09-12T06:04:49.658Z,11.73
2022-09-12T06:07:17.930Z,12.15
2022-09-12T06:09:46.167Z,12.35
2022-09-12T06:12:15.734Z,12.93
2022-09-12T06:14:44.570Z,13.13
2022-09-12T06:17:12.867Z,13.43
2022-09-12T06:19:41.096Z,13.30
2022-09-12T06:22:09.915Z,13.55
2022-09-12T06:24:38.442Z,12.68
2022-09-12T06:27:06.834Z,13.07
2022-09-12T06:29:36.966Z,12.95
2022-09-12T06:32:05.340Z,12.52
2022-09-12T06:34:33.868Z,13.95
2022-09-12T06:37:04.029Z,13.18
2022-09-12T06:39:32.706Z,12.20
2022-09-12T06:42:01.058Z,13.23
2022-09-12T06:44:37.445Z,12.07
2022-09-12T06:47:05.786Z,13.07
2022-09-12T06:49:34.231Z,12.52
2022-09-12T06:52:02.806Z,12.15
2022-09-12T06:54:31.146Z,12.23
2022-09-12T06:56:59.516Z,11.85
2022-09-12T06:59:27.735Z,10.52
2022-09-12T07:01:57.497Z,11.95
2022-09-12T07:04:25.953Z,11.60
2022-09-12T07:06:54.251Z,12.45
2022-09-12T07:09:22.500Z,10.80
2022-09-12T07:11:50.758Z,11.13
2022-09-12T07:14:19.188Z,10.52
2022-09-12T07:16:47.491Z,10.25
2022-09-12T07:19:16.997Z,10.18
2022-09-12T07:21:45.516Z,10.45
2022-09-12T07:24:13.875Z,10.68
2022-09-12T07:26:44.125Z,10.98
2022-09-12T07:32:06.187Z,9.90
2022-09-12T07:34:36.652Z,9.85
2022-09-12T07:37:05.186Z,9.68
2022-09-12T07:39:33.577Z,9.07
2022-09-12T07:42:01.863Z,10.70
2022-09-12T07:44:30.586Z,10.55
2022-09-12T07:46:58.846Z,10.60
2022-09-12T07:49:27.154Z,9.95
2022-09-12T07:51:56.734Z,10.30
2022-09-12T07:54:25.305Z,9.95
2022-09-12T07:56:53.566Z,10.77
2022-09-12T07:59:48.445Z,10.35
2022-09-12T08:02:17.530Z,10.57
2022-09-12T08:04:47.807Z,9.30
2022-09-12T08:07:19.221Z,10.20
2022-09-12T08:09:47.764Z,10.10
2022-09-12T08:12:17.828Z,9.60
2022-09-12T08:14:46.119Z,10.00
2022-09-12T08:17:14.501Z,10.32
2022-09-12T08:19:42.933Z,10.43
2022-09-12T08:22:11.288Z,9.45
2022-09-12T08:24:41.169Z,9.52
2022-09-12T08:27:09.674Z,10.02
2022-09-12T08:29:37.984Z,9.52
2022-09-12T08:32:06.508Z,9.07
2022-09-12T08:34:34.889Z,9.63
2022-09-12T08:37:04.135Z,10.60
2022-09-12T08:39:33.348Z,10.07
2022-09-12T08:42:05.147Z,10.38
2022-09-12T08:44:54.896Z,10.45
2022-09-12T08:47:27.942Z,10.07
2022-09-12T08:50:11.821Z,10.32
2022-09-12T08:52:51.979Z,9.45
2022-09-12T08:55:34.082Z,9.80
2022-09-12T08:58:13.999Z,9.68
2022-09-12T09:00:48.662Z,11.60
2022-09-12T09:03:47.315Z,10.75
2022-09-12T09:06:53.048Z,10.35
2022-09-12T09:09:30.432Z,10.27
2022-09-12T09:12:08.006Z,10.50
2022-09-12T09:14:57.707Z,10.30
2022-09-12T09:17:33.417Z,9.63
2022-09-12T09:20:06.956Z,10.32
2022-09-12T09:22:42.625Z,10.82
2022-09-12T09:25:22.768Z,10.38
2022-09-12T09:27:58.945Z,10.35
2022-09-12T09:30:29.805Z,9.98
2022-09-12T09:33:01.447Z,9.68
2022-09-12T09:35:44.756Z,9.50
2022-09-12T09:38:24.533Z,9.93
2022-09-12T09:41:12.555Z,9.68
2022-09-12T09:43:41.034Z,9.60
2022-09-12T09:46:11.903Z,9.48
2022-09-12T09:48:44.525Z,9.40
2022-09-12T09:51:14.886Z,9.90
2022-09-12T09:53:49.256Z,10.27
2022-09-12T09:56:28.786Z,11.05
2022-09-12T09:58:57.475Z,11.80
2022-09-12T10:01:28.563Z,10.60
2022-09-12T10:03:58.540Z,10.82
2022-09-12T10:06:32.563Z,10.60
2022-09-12T10:09:21.224Z,10.43
2022-09-12T10:11:50.594Z,9.60
2022-09-12T10:14:36.723Z,9.35
2022-09-12T10:17:33.848Z,9.63
2022-09-12T10:20:21.637Z,10.23
2022-09-12T10:22:50.764Z,10.05
2022-09-12T10:25:21.408Z,10.48
2022-09-12T10:27:56.438Z,8.98
2022-09-12T10:30:28.452Z,9.02
2022-09-12T10:33:07.632Z,9.02
2022-09-12T10:35:47.131Z,8.90
2022-09-12T10:38:22.545Z,8.85
2022-09-12T10:40:59.245Z,7.97
2022-09-12T10:43:31.043Z,9.20
2022-09-12T10:46:00.635Z,9.13
2022-09-12T10:48:32.496Z,8.27
2022-09-12T10:51:01.674Z,8.63
2022-09-12T10:53:34.737Z,9.27
2022-09-12T10:56:09.915Z,9.07
2022-09-12T10:58:53.775Z,8.95
2022-09-12T11:01:35.192Z,8.15
2022-09-12T11:04:24.556Z,8.32
2022-09-12T11:07:27.903Z,8.05
2022-09-12T11:10:02.981Z,8.18
2022-09-12T11:12:38.025Z,8.65
2022-09-12T11:15:25.424Z,8.95
2022-09-12T11:18:02.309Z,9.10
2022-09-12T11:20:54.034Z,8.95
2022-09-12T11:23:48.926Z,8.70
2022-09-12T11:26:36.035Z,8.90
2022-09-12T11:29:17.608Z,8.75
2022-09-12T11:32:04.028Z,8.10
2022-09-12T11:34:42.564Z,8.30
2022-09-12T11:37:30.065Z,8.85
2022-09-12T11:40:06.348Z,7.97
2022-09-12T11:42:40.538Z,8.20
2022-09-12T11:45:16.917Z,7.75
2022-09-12T11:47:50.306Z,7.93
2022-09-12T11:50:23.395Z,7.90
2022-09-12T11:52:54.203Z,8.20
2022-09-12T11:55:27.203Z,7.25
2022-09-12T11:57:58.014Z,8.23
2022-09-12T12:00:30.013Z,8.15
2022-09-12T12:03:04.973Z,7.68
2022-09-12T12:05:38.547Z,7.63
2022-09-12T12:08:09.379Z,7.20
2022-09-12T12:10:40.135Z,7.80
2022-09-12T12:13:18.139Z,8.15
2022-09-12T12:15:50.035Z,7.53
2022-09-12T12:18:21.147Z,7.38
2022-09-12T12:20:50.564Z,7.05
2022-09-12T12:23:28.600Z,7.50
2022-09-12T12:25:58.684Z,7.65
2022-09-12T12:29:00.906Z,7.35
2022-09-12T12:31:29.322Z,7.90
2022-09-12T12:34:23.622Z,7.03
2022-09-12T12:36:51.957Z,7.97
2022-09-12T12:40:01.176Z,7.60
2022-09-12T12:43:31.585Z,7.57
2022-09-12T12:46:09.273Z,7.20
2022-09-12T12:49:01.919Z,7.57
2022-09-12T12:51:58.439Z,6.97
2022-09-12T12:54:57.595Z,7.50
2022-09-12T12:57:47.995Z,7.80
2022-09-12T13:00:34.504Z,8.00
2022-09-12T13:03:11.207Z,8.85
2022-09-12T13:05:44.528Z,9.02
2022-09-12T13:08:30.249Z,9.38
2022-09-12T13:11:02.004Z,9.25
2022-09-12T13:13:36.470Z,9.57
2022-09-12T13:16:06.487Z,9.18
2022-09-12T13:18:43.246Z,8.73
2022-09-12T13:21:14.539Z,9.75
2022-09-12T13:23:43.348Z,9.43
2022-09-12T13:26:14.079Z,9.32
2022-09-12T13:28:42.440Z,9.68
2022-09-12T13:31:21.485Z,9.15
2022-09-12T13:33:52.458Z,9.55
2022-09-12T13:37:12.384Z,9.73
2022-09-12T13:39:49.622Z,9.93
2022-09-12T13:42:42.650Z,9.95
2022-09-12T13:45:16.704Z,9.43
2022-09-12T13:47:47.976Z,9.85
2022-09-12T13:50:20.793Z,9.88
2022-09-12T13:52:53.348Z,9.20
2022-09-12T13:55:31.576Z,9.52
2022-09-12T13:58:02.322Z,9.73
2022-09-12T14:00:32.206Z,9.75
2022-09-12T14:03:20.242Z,10.23
2022-09-12T14:05:58.295Z,9.50
2022-09-12T14:08:27.037Z,9.85
2022-09-12T14:10:56.425Z,9.60
2022-09-12T14:13:28.086Z,10.20
2022-09-12T14:15:59.910Z,9.60
2022-09-12T14:18:37.186Z,9.65
2022-09-12T14:21:11.363Z,9.10
2022-09-12T14:23:42.575Z,8.25
2022-09-12T14:26:12.957Z,9.25
2022-09-12T14:28:42.977Z,9.48
2022-09-12T14:31:25.423Z,8.98
2022-09-12T14:33:56.997Z,9.60
2022-09-12T14:36:28.904Z,8.75
2022-09-12T14:39:01.033Z,9.10
2022-09-12T14:41:32.742Z,8.88
2022-09-12T14:44:05.056Z,9.02
2022-09-12T14:46:35.847Z,8.40
2022-09-12T14:49:13.578Z,11.52
2022-09-12T14:51:51.503Z,9.82
2022-09-12T14:54:42.618Z,8.68
2022-09-12T14:57:35.267Z,8.15
2022-09-12T15:00:28.013Z,8.45
2022-09-12T15:02:56.436Z,9.10
2022-09-12T15:05:29.569Z,9.65
2022-09-12T15:08:00.714Z,9.30
2022-09-12T15:10:32.407Z,8.60
2022-09-12T15:13:19.335Z,8.60
2022-09-12T15:15:49.847Z,9.10
2022-09-12T15:18:19.645Z,8.77
2022-09-12T15:20:52.205Z,8.83
2022-09-12T15:23:33.187Z,8.90
2022-09-12T15:26:01.726Z,8.87
2022-09-12T15:28:32.215Z,9.10
2022-09-12T15:31:06.675Z,8.90
2022-09-12T15:33:35.182Z,9.03
2022-09-12T15:36:05.103Z,9.10
2022-09-12T15:38:33.428Z,8.73
2022-09-12T15:41:01.738Z,8.43
2022-09-12T15:43:29.964Z,8.40
2022-09-12T15:45:59.391Z,8.70
2022-09-12T15:48:27.737Z,8.70
2022-09-12T15:51:01.426Z,8.53
2022-09-12T15:53:31.108Z,9.03
2022-09-12T15:55:59.457Z,8.30
2022-09-12T15:58:27.764Z,9.37
2022-09-12T16:00:56.069Z,9.97
2022-09-12T16:03:26.811Z,8.63
2022-09-12T16:05:58.124Z,9.00
2022-09-12T16:08:26.877Z,8.30
2022-09-12T16:10:59.586Z,8.17
2022-09-12T16:13:28.216Z,9.40
2022-09-12T16:15:58.864Z,9.00
2022-09-12T16:18:27.788Z,9.13
2022-09-12T16:20:56.859Z,8.67
2022-09-12T16:23:25.674Z,8.87
2022-09-12T16:26:03.153Z,8.27
2022-09-12T16:28:33.314Z,9.33
2022-09-12T16:31:02.971Z,8.50
2022-09-12T16:33:33.737Z,9.67
2022-09-12T16:36:07.525Z,9.07
2022-09-12T16:38:36.372Z,9.70
2022-09-12T16:41:07.942Z,9.63
2022-09-12T16:43:37.168Z,9.23
2022-09-12T16:46:07.281Z,9.50
2022-09-12T16:48:35.987Z,10.03
2022-09-12T16:51:06.920Z,10.00
2022-09-12T16:53:37.893Z,9.70
2022-09-12T16:56:07.763Z,9.80
2022-09-12T16:58:41.619Z,9.40
2022-09-12T17:01:12.134Z,9.90
2022-09-12T17:03:41.053Z,9.70
2022-09-12T17:06:11.486Z,9.87
2022-09-12T17:08:42.728Z,9.60
2022-09-12T17:11:14.513Z,8.90
2022-09-12T17:14:03.865Z,8.30
2022-09-12T17:16:34.416Z,9.17
2022-09-12T17:19:02.790Z,9.17
2022-09-12T17:21:31.024Z,9.50
2022-09-12T17:24:00.162Z,8.97
2022-09-12T17:26:29.774Z,9.67
2022-09-12T17:28:58.045Z,9.27
2022-09-12T17:31:26.716Z,9.40
2022-09-12T17:33:58.446Z,9.37
2022-09-12T17:36:27.568Z,9.87
2022-09-12T17:38:56.055Z,10.50
2022-09-12T17:41:25.739Z,11.27
2022-09-12T17:43:57.463Z,10.60
2022-09-12T17:46:27.657Z,10.40
2022-09-12T17:48:57.485Z,11.20
2022-09-12T17:51:28.985Z,9.90
2022-09-12T17:54:00.168Z,10.00
2022-09-12T17:56:30.839Z,10.53
2022-09-12T17:59:01.116Z,9.40
2022-09-12T18:01:48.008Z,10.10
2022-09-12T18:04:17.078Z,10.20
2022-09-12T18:06:48.207Z,10.33
2022-09-12T18:09:19.621Z,10.17
2022-09-12T18:11:48.611Z,10.00
2022-09-12T18:14:18.775Z,10.93
2022-09-12T18:16:47.478Z,11.17
2022-09-12T18:19:16.509Z,10.67
2022-09-12T18:21:45.486Z,10.60
2022-09-12T18:24:13.866Z,9.80
2022-09-12T18:26:43.670Z,10.40
2022-09-12T18:29:12.412Z,10.47
2022-09-12T18:31:42.034Z,10.90
2022-09-12T18:34:13.912Z,11.07
2022-09-12T18:36:42.936Z,11.07
2022-09-12T18:39:11.703Z,10.00
2022-09-12T18:41:41.012Z,12.33
2022-09-12T18:44:11.544Z,10.67
2022-09-12T18:46:41.424Z,11.07
2022-09-12T18:49:10.454Z,11.37
2022-09-12T18:51:41.855Z,11.30
2022-09-12T18:54:14.382Z,10.50
2022-09-12T18:56:44.075Z,10.33
2022-09-12T18:59:14.856Z,11.03
2022-09-12T19:01:44.844Z,10.63
2022-09-12T19:04:14.459Z,11.27
2022-09-12T19:06:45.013Z,11.40
2022-09-12T19:09:15.576Z,11.23
2022-09-12T19:11:49.610Z,11.60
2022-09-12T19:14:19.323Z,12.03
2022-09-12T19:16:50.795Z,12.20
2022-09-12T19:19:19.623Z,11.50
2022-09-12T19:21:47.988Z,11.70
2022-09-12T19:24:17.186Z,11.77
2022-09-12T19:26:45.679Z,12.30
2022-09-12T19:29:14.826Z,13.20
2022-09-12T19:31:43.363Z,11.83
2022-09-12T19:34:14.355Z,12.53
2022-09-12T19:36:45.886Z,12.23
2022-09-12T19:39:16.581Z,12.53
2022-09-12T19:41:45.736Z,12.00
2022-09-12T19:44:14.463Z,11.83
2022-09-12T19:46:43.480Z,12.37
2022-09-12T19:49:13.774Z,12.30
2022-09-12T19:51:42.347Z,11.60
2022-09-12T19:54:10.753Z,12.27
2022-09-12T19:56:39.218Z,12.93
2022-09-12T19:59:07.557Z,12.60
2022-09-12T20:01:37.257Z,11.47
2022-09-12T20:04:06.895Z,11.60
2022-09-12T20:06:36.969Z,11.37
2022-09-12T20:09:05.565Z,11.90
2022-09-12T20:11:33.962Z,11.73
2022-09-12T20:14:02.383Z,11.27
2022-09-12T20:16:31.136Z,10.70
2022-09-12T20:19:02.549Z,10.90
2022-09-12T20:21:34.244Z,11.30
2022-09-12T20:24:07.699Z,11.80
2022-09-12T20:26:36.835Z,11.50
2022-09-12T20:29:06.207Z,12.00
2022-09-12T20:31:35.264Z,11.17
2022-09-12T20:34:03.816Z,11.97
2022-09-12T20:36:32.189Z,11.20
2022-09-12T20:39:03.169Z,11.70
2022-09-12T20:41:33.367Z,11.30
2022-09-12T20:44:01.668Z,11.80
2022-09-12T20:46:30.452Z,11.50
2022-09-12T20:48:59.584Z,11.70
2022-09-12T20:51:29.798Z,11.57
2022-09-12T20:53:59.310Z,11.77
2022-09-12T20:56:29.807Z,11.70
2022-09-12T20:58:58.863Z,11.13
2022-09-12T21:01:29.032Z,11.03
2022-09-12T21:03:57.435Z,11.40
2022-09-12T21:06:25.707Z,12.10
2022-09-12T21:08:54.296Z,12.03
2022-09-12T21:11:22.589Z,11.80
2022-09-12T21:13:52.904Z,11.30
2022-09-12T21:16:22.452Z,11.47
2022-09-12T21:18:55.105Z,11.30
2022-09-12T21:21:23.737Z,11.43
2022-09-12T21:23:54.122Z,10.83
2022-09-12T21:26:22.385Z,11.77
2022-09-12T21:28:52.004Z,11.50
2022-09-12T21:31:20.322Z,11.80
2022-09-12T21:33:48.928Z,11.97
2022-09-12T21:36:17.342Z,12.50
2022-09-12T21:38:45.608Z,11.90
2022-09-12T21:41:15.866Z,12.93
2022-09-12T21:43:45.561Z,12.33
2022-09-12T21:46:15.289Z,11.70
2022-09-12T21:48:44.365Z,11.73
2022-09-12T21:51:12.742Z,11.70
2022-09-12T21:53:40.996Z,11.57
2022-09-12T21:56:10.206Z,11.60
2022-09-12T21:58:39.370Z,11.80
2022-09-12T22:01:09.506Z,12.00
2022-09-12T22:03:39.284Z,11.63
2022-09-12T22:06:09.049Z,12.47
2022-09-12T22:08:38.896Z,11.97
2022-09-12T22:11:10.404Z,11.73
2022-09-12T22:13:43.685Z,11.57
2022-09-12T22:16:12.775Z,11.80
2022-09-12T22:18:42.424Z,11.97
2022-09-12T22:21:15.588Z,12.10
2022-09-12T22:24:01.155Z,11.70
2022-09-12T22:26:29.476Z,11.97
2022-09-12T22:28:58.006Z,12.40
2022-09-12T22:31:27.048Z,12.20
2022-09-12T22:33:58.455Z,11.97
2022-09-12T22:36:30.919Z,12.13
2022-09-12T22:38:59.899Z,12.90
2022-09-12T22:41:28.523Z,12.17
2022-09-12T22:43:58.354Z,12.80
2022-09-12T22:46:27.660Z,12.77
2022-09-12T22:48:57.462Z,12.43
2022-09-12T22:51:25.894Z,12.80
2022-09-12T22:53:54.265Z,12.73
2022-09-12T22:56:22.595Z,12.63
2022-09-12T22:58:50.915Z,12.60
2022-09-12T23:01:19.285Z,13.13
2022-09-12T23:03:47.790Z,13.50
2022-09-12T23:06:19.005Z,12.33
2022-09-12T23:08:47.229Z,12.60
2022-09-12T23:11:17.657Z,12.73
2022-09-12T23:13:48.155Z,12.63
2022-09-12T23:16:19.996Z,12.47
2022-09-12T23:18:49.556Z,12.43
2022-09-12T23:21:21.218Z,12.40
2022-09-12T23:23:49.768Z,12.60
2022-09-12T23:26:19.745Z,13.17
2022-09-12T23:28:52.872Z,12.47
2022-09-12T23:31:21.596Z,12.33
2022-09-12T23:33:50.627Z,12.30
2022-09-12T23:36:20.208Z,12.67
2022-09-12T23:38:48.738Z,13.10
2022-09-12T23:41:18.404Z,13.17
2022-09-12T23:43:47.416Z,12.80
2022-09-12T23:46:17.145Z,13.53
2022-09-12T23:48:45.504Z,13.07
2022-09-12T23:51:14.025Z,13.20
2022-09-12T23:53:43.639Z,12.80
2022-09-12T23:56:12.264Z,12.37
2022-09-12T23:58:40.537Z,12.57
